sensor_id;sensor_type;location;lat;lon;timestamp;pressure;altitude;pressure_sealevel;temperature;humidity
54270;BME280;40181;51.560;13.000;2023-09-30T00:02:01;101182.22;;;17.72;93.70
54270;BME280;40181;51.560;13.000;2023-09-30T00:04:30;101185.75;;;17.75;92.27
54270;BME280;40181;51.560;13.000;2023-09-30T00:07:02;101186.50;;;17.90;91.42
54270;BME280;40181;51.560;13.000;2023-09-30T00:09:31;101195.44;;;17.81;90.52
54270;BME280;40181;51.560;13.000;2023-09-30T00:12:00;101201.66;;;17.77;90.17
54270;BME280;40181;51.560;13.000;2023-09-30T00:14:29;101203.56;;;17.50;92.21
54270;BME280;40181;51.560;13.000;2023-09-30T00:16:58;101206.28;;;17.44;92.13
54270;BME280;40181;51.560;13.000;2023-09-30T00:19:28;101204.44;;;17.56;91.79
54270;BME280;40181;51.560;13.000;2023-09-30T00:22:00;101206.09;;;17.75;90.76
54270;BME280;40181;51.560;13.000;2023-09-30T00:24:30;101205.34;;;17.48;91.03
54270;BME280;40181;51.560;13.000;2023-09-30T00:26:59;101221.22;;;17.63;90.39
54270;BME280;40181;51.560;13.000;2023-09-30T00:29:31;101211.41;;;17.73;88.97
54270;BME280;40181;51.560;13.000;2023-09-30T00:32:00;101222.00;;;17.78;87.96
54270;BME280;40181;51.560;13.000;2023-09-30T00:34:32;101213.03;;;18.07;86.33
54270;BME280;40181;51.560;13.000;2023-09-30T00:37:05;101227.41;;;17.64;88.05
54270;BME280;40181;51.560;13.000;2023-09-30T00:39:34;101215.72;;;17.94;86.03
54270;BME280;40181;51.560;13.000;2023-09-30T00:42:03;101233.41;;;18.06;85.23
54270;BME280;40181;51.560;13.000;2023-09-30T00:44:32;101237.16;;;17.65;85.86
54270;BME280;40181;51.560;13.000;2023-09-30T00:47:01;101230.84;;;17.83;85.64
54270;BME280;40181;51.560;13.000;2023-09-30T00:49:31;101238.84;;;17.80;84.29
54270;BME280;40181;51.560;13.000;2023-09-30T00:52:05;101242.41;;;17.76;83.63
54270;BME280;40181;51.560;13.000;2023-09-30T00:54:35;101241.63;;;17.53;81.70
54270;BME280;40181;51.560;13.000;2023-09-30T00:57:05;101238.09;;;17.58;81.63
54270;BME280;40181;51.560;13.000;2023-09-30T00:59:34;101233.72;;;17.44;79.82
54270;BME280;40181;51.560;13.000;2023-09-30T01:02:03;101246.97;;;17.44;79.51
54270;BME280;40181;51.560;13.000;2023-09-30T01:04:33;101249.72;;;17.25;80.12
54270;BME280;40181;51.560;13.000;2023-09-30T01:07:05;101255.06;;;17.13;79.87
54270;BME280;40181;51.560;13.000;2023-09-30T01:09:35;101259.47;;;17.25;78.78
54270;BME280;40181;51.560;13.000;2023-09-30T01:12:05;101257.72;;;17.07;78.11
54270;BME280;40181;51.560;13.000;2023-09-30T01:14:35;101264.84;;;17.06;77.23
54270;BME280;40181;51.560;13.000;2023-09-30T01:17:06;101265.72;;;16.79;77.46
54270;BME280;40181;51.560;13.000;2023-09-30T01:19:38;101270.13;;;16.89;75.92
54270;BME280;40181;51.560;13.000;2023-09-30T01:22:10;101258.63;;;16.96;74.84
54270;BME280;40181;51.560;13.000;2023-09-30T01:24:41;101264.81;;;17.00;74.56
54270;BME280;40181;51.560;13.000;2023-09-30T01:27:12;101273.69;;;17.04;74.35
54270;BME280;40181;51.560;13.000;2023-09-30T01:29:43;101277.22;;;16.93;73.90
54270;BME280;40181;51.560;13.000;2023-09-30T01:32:14;101292.22;;;17.14;73.40
54270;BME280;40181;51.560;13.000;2023-09-30T01:34:43;101298.44;;;16.81;74.34
54270;BME280;40181;51.560;13.000;2023-09-30T01:37:15;101304.63;;;16.94;73.42
54270;BME280;40181;51.560;13.000;2023-09-30T01:39:44;101304.63;;;16.95;73.40
54270;BME280;40181;51.560;13.000;2023-09-30T01:42:15;101308.16;;;16.63;74.49
54270;BME280;40181;51.560;13.000;2023-09-30T01:44:45;101297.56;;;16.85;73.32
54270;BME280;40181;51.560;13.000;2023-09-30T01:47:15;101305.50;;;16.58;74.46
54270;BME280;40181;51.560;13.000;2023-09-30T01:49:44;101312.59;;;16.81;73.66
54270;BME280;40181;51.560;13.000;2023-09-30T01:52:16;101314.34;;;16.62;74.71
54270;BME280;40181;51.560;13.000;2023-09-30T01:54:45;101312.59;;;16.58;74.98
54270;BME280;40181;51.560;13.000;2023-09-30T01:57:14;101316.13;;;16.74;74.42
54270;BME280;40181;51.560;13.000;2023-09-30T01:59:43;101321.41;;;16.43;75.64
54270;BME280;40181;51.560;13.000;2023-09-30T02:02:13;101312.59;;;16.61;74.87
54270;BME280;40181;51.560;13.000;2023-09-30T02:04:43;101315.22;;;16.59;75.42
54270;BME280;40181;51.560;13.000;2023-09-30T02:07:12;101323.13;;;16.10;77.16
54270;BME280;40181;51.560;13.000;2023-09-30T02:09:44;101327.53;;;16.08;77.93
54270;BME280;40181;51.560;13.000;2023-09-30T02:12:14;101329.31;;;16.24;76.86
54270;BME280;40181;51.560;13.000;2023-09-30T02:14:43;101335.50;;;16.08;77.51
54270;BME280;40181;51.560;13.000;2023-09-30T02:17:13;101345.19;;;15.99;78.41
54270;BME280;40181;51.560;13.000;2023-09-30T02:19:42;101347.81;;;16.02;78.34
54270;BME280;40181;51.560;13.000;2023-09-30T02:22:12;101351.41;;;16.17;77.71
54270;BME280;40181;51.560;13.000;2023-09-30T02:24:44;101350.53;;;16.24;77.01
54270;BME280;40181;51.560;13.000;2023-09-30T02:27:13;101357.28;;;15.55;80.79
54270;BME280;40181;51.560;13.000;2023-09-30T02:29:43;101364.53;;;15.87;79.98
54270;BME280;40181;51.560;13.000;2023-09-30T02:32:12;101368.91;;;15.87;79.98
54270;BME280;40181;51.560;13.000;2023-09-30T02:34:42;101369.00;;;15.96;79.98
54270;BME280;40181;51.560;13.000;2023-09-30T02:37:11;101374.09;;;15.59;81.63
54270;BME280;40181;51.560;13.000;2023-09-30T02:39:43;101384.00;;;15.97;80.40
54270;BME280;40181;51.560;13.000;2023-09-30T02:42:12;101396.28;;;15.84;80.54
54270;BME280;40181;51.560;13.000;2023-09-30T02:44:41;101387.47;;;15.81;81.02
54270;BME280;40181;51.560;13.000;2023-09-30T02:47:11;101387.25;;;15.48;82.47
54270;BME280;40181;51.560;13.000;2023-09-30T02:49:40;101381.19;;;15.69;81.54
54270;BME280;40181;51.560;13.000;2023-09-30T02:52:09;101372.53;;;15.95;80.47
54270;BME280;40181;51.560;13.000;2023-09-30T02:54:38;101383.88;;;15.74;81.10
54270;BME280;40181;51.560;13.000;2023-09-30T02:57:10;101393.56;;;15.64;81.22
54270;BME280;40181;51.560;13.000;2023-09-30T02:59:39;101400.41;;;15.32;83.07
54270;BME280;40181;51.560;13.000;2023-09-30T03:02:09;101407.38;;;15.23;83.82
54270;BME280;40181;51.560;13.000;2023-09-30T03:04:40;101417.31;;;15.56;82.57
54270;BME280;40181;51.560;13.000;2023-09-30T03:07:10;101405.63;;;15.21;83.75
54270;BME280;40181;51.560;13.000;2023-09-30T03:09:39;101420.69;;;15.29;82.97
54270;BME280;40181;51.560;13.000;2023-09-30T03:12:11;101412.06;;;15.62;81.84
54270;BME280;40181;51.560;13.000;2023-09-30T03:14:40;101415.56;;;15.54;82.15
54270;BME280;40181;51.560;13.000;2023-09-30T03:17:10;101430.25;;;15.13;84.27
54270;BME280;40181;51.560;13.000;2023-09-30T03:19:40;101427.59;;;15.11;84.67
54270;BME280;40181;51.560;13.000;2023-09-30T03:22:09;101443.38;;;15.02;84.83
54270;BME280;40181;51.560;13.000;2023-09-30T03:24:41;101448.00;;;15.29;84.29
54270;BME280;40181;51.560;13.000;2023-09-30T03:27:13;101450.59;;;15.20;84.63
54270;BME280;40181;51.560;13.000;2023-09-30T03:29:43;101455.63;;;14.89;87.03
54270;BME280;40181;51.560;13.000;2023-09-30T03:32:10;101456.56;;;14.97;87.48
54270;BME280;40181;51.560;13.000;2023-09-30T03:34:39;101455.06;;;15.24;86.94
54270;BME280;40181;51.560;13.000;2023-09-30T03:37:11;101445.09;;;14.95;89.04
54270;BME280;40181;51.560;13.000;2023-09-30T03:39:40;101443.44;;;15.06;88.86
54270;BME280;40181;51.560;13.000;2023-09-30T03:42:15;101442.47;;;15.01;88.74
54270;BME280;40181;51.560;13.000;2023-09-30T03:44:44;101445.94;;;14.92;89.64
54270;BME280;40181;51.560;13.000;2023-09-30T03:47:14;101452.94;;;14.86;90.73
54270;BME280;40181;51.560;13.000;2023-09-30T03:49:43;101461.94;;;15.08;89.16
54270;BME280;40181;51.560;13.000;2023-09-30T03:52:13;101461.22;;;15.23;88.02
54270;BME280;40181;51.560;13.000;2023-09-30T03:54:43;101460.00;;;14.87;89.80
54270;BME280;40181;51.560;13.000;2023-09-30T03:57:14;101448.53;;;14.88;89.72
54270;BME280;40181;51.560;13.000;2023-09-30T03:59:44;101458.03;;;14.70;90.50
54270;BME280;40181;51.560;13.000;2023-09-30T04:02:14;101459.25;;;15.03;88.96
54270;BME280;40181;51.560;13.000;2023-09-30T04:04:43;101467.75;;;14.71;90.71
54270;BME280;40181;51.560;13.000;2023-09-30T04:07:12;101453.78;;;14.85;90.53
54270;BME280;40181;51.560;13.000;2023-09-30T04:09:42;101454.63;;;14.79;90.32
54270;BME280;40181;51.560;13.000;2023-09-30T04:12:11;101461.78;;;14.88;89.72
54270;BME280;40181;51.560;13.000;2023-09-30T04:14:43;101457.56;;;15.08;88.22
54270;BME280;40181;51.560;13.000;2023-09-30T04:17:13;101472.53;;;15.08;87.79
54270;BME280;40181;51.560;13.000;2023-09-30T04:19:42;101476.09;;;15.10;88.08
54270;BME280;40181;51.560;13.000;2023-09-30T04:22:12;101481.69;;;14.58;90.17
54270;BME280;40181;51.560;13.000;2023-09-30T04:24:42;101479.31;;;14.79;89.91
54270;BME280;40181;51.560;13.000;2023-09-30T04:27:11;101480.25;;;14.85;89.82
54270;BME280;40181;51.560;13.000;2023-09-30T04:29:43;101495.41;;;15.00;88.42
54270;BME280;40181;51.560;13.000;2023-09-30T04:32:14;101487.44;;;14.95;88.76
54270;BME280;40181;51.560;13.000;2023-09-30T04:34:44;101501.47;;;14.91;88.11
54270;BME280;40181;51.560;13.000;2023-09-30T04:37:14;101502.41;;;14.98;89.33
54270;BME280;40181;51.560;13.000;2023-09-30T04:39:44;101511.31;;;15.06;87.97
54270;BME280;40181;51.560;13.000;2023-09-30T04:42:16;101524.09;;;14.67;90.94
54270;BME280;40181;51.560;13.000;2023-09-30T04:44:45;101522.00;;;14.39;92.73
54270;BME280;40181;51.560;13.000;2023-09-30T04:47:15;101518.94;;;14.07;94.06
54270;BME280;40181;51.560;13.000;2023-09-30T04:49:44;101517.16;;;14.06;94.63
54270;BME280;40181;51.560;13.000;2023-09-30T04:52:13;101507.81;;;14.31;94.28
54270;BME280;40181;51.560;13.000;2023-09-30T04:54:42;101502.53;;;14.34;92.89
54270;BME280;40181;51.560;13.000;2023-09-30T04:57:12;101500.91;;;14.44;91.96
54270;BME280;40181;51.560;13.000;2023-09-30T04:59:44;101499.19;;;14.46;92.08
54270;BME280;40181;51.560;13.000;2023-09-30T05:02:14;101491.34;;;14.52;91.95
54270;BME280;40181;51.560;13.000;2023-09-30T05:04:43;101489.63;;;14.56;91.90
54270;BME280;40181;51.560;13.000;2023-09-30T05:07:12;101496.38;;;14.32;92.83
54270;BME280;40181;51.560;13.000;2023-09-30T05:09:41;101498.97;;;14.31;92.75
54270;BME280;40181;51.560;13.000;2023-09-30T05:12:11;101515.59;;;14.19;94.09
54270;BME280;40181;51.560;13.000;2023-09-30T05:14:44;101509.88;;;13.89;96.53
54270;BME280;40181;51.560;13.000;2023-09-30T05:17:13;101507.66;;;13.60;97.69
54270;BME280;40181;51.560;13.000;2023-09-30T05:19:42;101513.81;;;14.19;95.10
54270;BME280;40181;51.560;13.000;2023-09-30T05:22:12;101504.06;;;14.15;94.63
54270;BME280;40181;51.560;13.000;2023-09-30T05:24:44;101509.69;;;14.42;93.16
54270;BME280;40181;51.560;13.000;2023-09-30T05:27:13;101525.28;;;14.20;93.22
54270;BME280;40181;51.560;13.000;2023-09-30T05:29:45;101526.78;;;14.04;95.86
54270;BME280;40181;51.560;13.000;2023-09-30T05:32:14;101527.16;;;14.29;94.21
54270;BME280;40181;51.560;13.000;2023-09-30T05:34:44;101530.75;;;14.34;93.34
54270;BME280;40181;51.560;13.000;2023-09-30T05:37:13;101539.53;;;14.31;94.04
54270;BME280;40181;51.560;13.000;2023-09-30T05:39:43;101538.22;;;14.03;95.49
54270;BME280;40181;51.560;13.000;2023-09-30T05:42:14;101537.44;;;14.08;95.25
54270;BME280;40181;51.560;13.000;2023-09-30T05:44:46;101536.63;;;14.13;96.10
54270;BME280;40181;51.560;13.000;2023-09-30T05:47:16;101556.19;;;14.25;94.77
54270;BME280;40181;51.560;13.000;2023-09-30T05:49:45;101554.78;;;13.89;96.94
54270;BME280;40181;51.560;13.000;2023-09-30T05:52:14;101557.84;;;13.62;99.15
54270;BME280;40181;51.560;13.000;2023-09-30T05:54:44;101564.91;;;13.63;98.31
54270;BME280;40181;51.560;13.000;2023-09-30T05:57:14;101557.91;;;13.66;98.96
54270;BME280;40181;51.560;13.000;2023-09-30T05:59:46;101563.06;;;13.59;99.14
54270;BME280;40181;51.560;13.000;2023-09-30T06:02:15;101571.13;;;13.65;98.31
54270;BME280;40181;51.560;13.000;2023-09-30T06:04:45;101588.97;;;13.81;98.11
54270;BME280;40181;51.560;13.000;2023-09-30T06:07:16;101590.69;;;13.78;97.03
54270;BME280;40181;51.560;13.000;2023-09-30T06:09:45;101588.19;;;13.87;97.21
54270;BME280;40181;51.560;13.000;2023-09-30T06:12:15;101597.44;;;13.62;98.41
54270;BME280;40181;51.560;13.000;2023-09-30T06:14:47;101591.75;;;13.89;96.79
54270;BME280;40181;51.560;13.000;2023-09-30T06:17:17;101604.56;;;13.67;96.84
54270;BME280;40181;51.560;13.000;2023-09-30T06:19:47;101605.97;;;13.97;96.54
54270;BME280;40181;51.560;13.000;2023-09-30T06:22:17;101596.63;;;13.64;97.59
54270;BME280;40181;51.560;13.000;2023-09-30T06:24:46;101596.50;;;13.58;98.17
54270;BME280;40181;51.560;13.000;2023-09-30T06:27:16;101603.97;;;13.82;97.27
54270;BME280;40181;51.560;13.000;2023-09-30T06:29:48;101606.44;;;13.72;96.74
54270;BME280;40181;51.560;13.000;2023-09-30T06:32:18;101615.00;;;13.60;97.27
54270;BME280;40181;51.560;13.000;2023-09-30T06:34:47;101604.28;;;13.50;98.92
54270;BME280;40181;51.560;13.000;2023-09-30T06:37:17;101615.19;;;13.69;97.74
54270;BME280;40181;51.560;13.000;2023-09-30T06:39:47;101609.53;;;14.00;96.34
54270;BME280;40181;51.560;13.000;2023-09-30T06:42:17;101617.25;;;13.89;95.99
54270;BME280;40181;51.560;13.000;2023-09-30T06:44:49;101634.06;;;13.92;96.36
54270;BME280;40181;51.560;13.000;2023-09-30T06:47:18;101636.94;;;14.06;95.09
54270;BME280;40181;51.560;13.000;2023-09-30T06:49:47;101632.47;;;14.02;94.99
54270;BME280;40181;51.560;13.000;2023-09-30T06:52:16;101630.13;;;14.21;94.39
54270;BME280;40181;51.560;13.000;2023-09-30T06:54:46;101637.94;;;14.15;94.18
54270;BME280;40181;51.560;13.000;2023-09-30T06:57:17;101629.25;;;13.68;96.27
54270;BME280;40181;51.560;13.000;2023-09-30T06:59:49;101629.75;;;13.97;95.60
54270;BME280;40181;51.560;13.000;2023-09-30T07:02:18;101640.13;;;13.87;95.12
54270;BME280;40181;51.560;13.000;2023-09-30T07:04:47;101622.03;;;14.13;94.07
54270;BME280;40181;51.560;13.000;2023-09-30T07:07:16;101631.13;;;14.31;93.01
54270;BME280;40181;51.560;13.000;2023-09-30T07:09:45;101634.16;;;13.99;94.88
54270;BME280;40181;51.560;13.000;2023-09-30T07:12:14;101647.63;;;14.14;93.62
54270;BME280;40181;51.560;13.000;2023-09-30T07:14:45;101645.88;;;14.15;93.21
54270;BME280;40181;51.560;13.000;2023-09-30T07:17:17;101649.59;;;14.28;92.92
54270;BME280;40181;51.560;13.000;2023-09-30T07:19:46;101640.41;;;14.04;93.08
54270;BME280;40181;51.560;13.000;2023-09-30T07:22:16;101640.44;;;14.05;93.08
54270;BME280;40181;51.560;13.000;2023-09-30T07:24:45;101626.94;;;14.45;91.30
54270;BME280;40181;51.560;13.000;2023-09-30T07:27:14;101622.41;;;14.35;91.72
54270;BME280;40181;51.560;13.000;2023-09-30T07:29:44;101641.84;;;14.38;91.86
54270;BME280;40181;51.560;13.000;2023-09-30T07:32:16;101635.63;;;14.35;92.05
54270;BME280;40181;51.560;13.000;2023-09-30T07:34:48;101634.97;;;14.51;91.47
54270;BME280;40181;51.560;13.000;2023-09-30T07:37:18;101643.72;;;14.46;91.41
54270;BME280;40181;51.560;13.000;2023-09-30T07:39:47;101652.56;;;14.48;90.77
54270;BME280;40181;51.560;13.000;2023-09-30T07:42:17;101663.94;;;14.44;90.33
54270;BME280;40181;51.560;13.000;2023-09-30T07:44:47;101667.50;;;14.47;90.26
54270;BME280;40181;51.560;13.000;2023-09-30T07:47:19;101659.84;;;14.66;90.58
54270;BME280;40181;51.560;13.000;2023-09-30T07:49:49;101663.25;;;14.57;90.01
54270;BME280;40181;51.560;13.000;2023-09-30T07:52:18;101672.13;;;14.61;89.55
54270;BME280;40181;51.560;13.000;2023-09-30T07:54:47;101679.38;;;14.17;91.24
54270;BME280;40181;51.560;13.000;2023-09-30T07:57:16;101673.78;;;14.52;90.12
54270;BME280;40181;51.560;13.000;2023-09-30T07:59:46;101672.19;;;14.65;89.73
54270;BME280;40181;51.560;13.000;2023-09-30T08:02:15;101667.88;;;14.72;88.74
54270;BME280;40181;51.560;13.000;2023-09-30T08:04:47;101677.69;;;14.78;88.18
54270;BME280;40181;51.560;13.000;2023-09-30T08:07:16;101677.47;;;14.67;89.44
54270;BME280;40181;51.560;13.000;2023-09-30T08:09:47;101682.13;;;14.80;88.16
54270;BME280;40181;51.560;13.000;2023-09-30T08:12:16;101672.59;;;14.93;87.76
54270;BME280;40181;51.560;13.000;2023-09-30T08:14:46;101670.81;;;14.94;87.66
54270;BME280;40181;51.560;13.000;2023-09-30T08:17:16;101669.59;;;14.69;88.53
54270;BME280;40181;51.560;13.000;2023-09-30T08:19:48;101688.34;;;14.84;88.32
54270;BME280;40181;51.560;13.000;2023-09-30T08:22:17;101684.13;;;14.99;87.30
54270;BME280;40181;51.560;13.000;2023-09-30T08:24:51;101691.94;;;14.89;87.26
54270;BME280;40181;51.560;13.000;2023-09-30T08:27:20;101695.81;;;15.15;86.97
54270;BME280;40181;51.560;13.000;2023-09-30T08:29:49;101689.72;;;15.24;85.85
54270;BME280;40181;51.560;13.000;2023-09-30T08:32:19;101680.09;;;15.29;85.56
54270;BME280;40181;51.560;13.000;2023-09-30T08:34:50;101695.09;;;15.27;85.85
54270;BME280;40181;51.560;13.000;2023-09-30T08:37:19;101693.88;;;15.00;86.63
54270;BME280;40181;51.560;13.000;2023-09-30T08:39:49;101686.09;;;15.14;85.66
54270;BME280;40181;51.560;13.000;2023-09-30T08:42:18;101677.53;;;15.37;85.40
54270;BME280;40181;51.560;13.000;2023-09-30T08:44:48;101683.78;;;15.42;84.17
54270;BME280;40181;51.560;13.000;2023-09-30T08:47:17;101689.97;;;15.44;83.73
54270;BME280;40181;51.560;13.000;2023-09-30T08:49:50;101689.84;;;15.31;83.80
54270;BME280;40181;51.560;13.000;2023-09-30T08:52:23;101699.69;;;15.45;83.34
54270;BME280;40181;51.560;13.000;2023-09-30T08:54:53;101699.03;;;15.65;82.47
54270;BME280;40181;51.560;13.000;2023-09-30T08:57:23;101712.47;;;15.85;82.82
54270;BME280;40181;51.560;13.000;2023-09-30T08:59:53;101702.78;;;15.85;82.49
54270;BME280;40181;51.560;13.000;2023-09-30T09:02:22;101715.09;;;15.80;80.29
54270;BME280;40181;51.560;13.000;2023-09-30T09:04:54;101699.25;;;15.86;80.51
54270;BME280;40181;51.560;13.000;2023-09-30T09:07:24;101709.75;;;15.79;80.95
54270;BME280;40181;51.560;13.000;2023-09-30T09:10:06;101709.78;;;15.80;80.38
54270;BME280;40181;51.560;13.000;2023-09-30T09:12:38;101716.88;;;15.84;79.79
54270;BME280;40181;51.560;13.000;2023-09-30T09:15:20;101707.28;;;15.91;79.70
54270;BME280;40181;51.560;13.000;2023-09-30T09:17:51;101696.50;;;15.79;79.16
54270;BME280;40181;51.560;13.000;2023-09-30T09:20:24;101691.44;;;15.96;78.93
54270;BME280;40181;51.560;13.000;2023-09-30T09:22:55;101687.97;;;16.03;78.80
54270;BME280;40181;51.560;13.000;2023-09-30T09:25:25;101709.94;;;15.91;79.25
54270;BME280;40181;51.560;13.000;2023-09-30T09:27:54;101694.34;;;16.25;78.59
54270;BME280;40181;51.560;13.000;2023-09-30T09:30:26;101697.84;;;16.26;77.95
54270;BME280;40181;51.560;13.000;2023-09-30T09:32:59;101696.88;;;16.14;76.95
54270;BME280;40181;51.560;13.000;2023-09-30T09:35:33;101702.22;;;16.17;76.33
54270;BME280;40181;51.560;13.000;2023-09-30T09:38:04;101691.63;;;16.22;75.55
54270;BME280;40181;51.560;13.000;2023-09-30T09:40:34;101689.28;;;16.61;76.19
54270;BME280;40181;51.560;13.000;2023-09-30T09:43:06;101695.44;;;16.58;74.96
54270;BME280;40181;51.560;13.000;2023-09-30T09:45:37;101690.16;;;16.57;74.69
54270;BME280;40181;51.560;13.000;2023-09-30T09:48:08;101695.41;;;16.54;72.84
54270;BME280;40181;51.560;13.000;2023-09-30T09:50:40;101683.16;;;16.74;71.04
54270;BME280;40181;51.560;13.000;2023-09-30T09:53:14;101676.00;;;16.61;70.58
54270;BME280;40181;51.560;13.000;2023-09-30T09:55:45;101678.66;;;16.64;70.45
54270;BME280;40181;51.560;13.000;2023-09-30T09:58:15;101683.97;;;16.61;69.82
54270;BME280;40181;51.560;13.000;2023-09-30T10:00:45;101676.06;;;16.70;69.56
54270;BME280;40181;51.560;13.000;2023-09-30T10:03:15;101681.38;;;16.73;69.25
54270;BME280;40181;51.560;13.000;2023-09-30T10:05:47;101679.78;;;17.00;69.88
54270;BME280;40181;51.560;13.000;2023-09-30T10:08:17;101670.13;;;17.15;69.66
54270;BME280;40181;51.560;13.000;2023-09-30T10:10:50;101685.03;;;16.97;66.08
54270;BME280;40181;51.560;13.000;2023-09-30T10:13:49;101675.38;;;17.01;64.43
54270;BME280;40181;51.560;13.000;2023-09-30T10:16:48;101676.38;;;17.37;66.11
54270;BME280;40181;51.560;13.000;2023-09-30T10:19:21;101677.28;;;17.39;64.53
54270;BME280;40181;51.560;13.000;2023-09-30T10:22:22;101686.09;;;17.27;64.10
54270;BME280;40181;51.560;13.000;2023-09-30T10:24:53;101688.81;;;17.49;64.29
54270;BME280;40181;51.560;13.000;2023-09-30T10:27:34;101685.25;;;17.38;63.60
54270;BME280;40181;51.560;13.000;2023-09-30T10:30:10;101680.84;;;17.60;63.83
54270;BME280;40181;51.560;13.000;2023-09-30T10:33:12;101694.16;;;17.71;63.24
54270;BME280;40181;51.560;13.000;2023-09-30T10:35:44;101682.63;;;17.53;60.49
54270;BME280;40181;51.560;13.000;2023-09-30T10:38:41;101681.72;;;17.42;59.30
54270;BME280;40181;51.560;13.000;2023-09-30T10:41:49;101687.97;;;17.61;59.75
54270;BME280;40181;51.560;13.000;2023-09-30T10:44:34;101693.28;;;17.72;57.66
54270;BME280;40181;51.560;13.000;2023-09-30T10:47:34;101686.28;;;18.05;58.16
54270;BME280;40181;51.560;13.000;2023-09-30T10:53:19;101691.56;;;18.22;57.16
54270;BME280;40181;51.560;13.000;2023-09-30T10:55:54;101683.59;;;18.08;57.43
54270;BME280;40181;51.560;13.000;2023-09-30T10:58:39;101681.84;;;18.28;57.38
54270;BME280;40181;51.560;13.000;2023-09-30T11:01:08;101682.69;;;18.48;58.17
54270;BME280;40181;51.560;13.000;2023-09-30T11:03:38;101672.06;;;18.34;57.79
54270;BME280;40181;51.560;13.000;2023-09-30T11:06:11;101675.63;;;18.19;57.52
54270;BME280;40181;51.560;13.000;2023-09-30T11:08:45;101679.19;;;18.34;57.62
54270;BME280;40181;51.560;13.000;2023-09-30T11:11:34;101673.84;;;18.32;55.89
54270;BME280;40181;51.560;13.000;2023-09-30T11:14:16;101669.34;;;18.67;55.59
54270;BME280;40181;51.560;13.000;2023-09-30T11:16:50;101664.03;;;18.70;54.90
54270;BME280;40181;51.560;13.000;2023-09-30T11:19:21;101663.09;;;18.91;55.89
54270;BME280;40181;51.560;13.000;2023-09-30T11:21:53;101671.91;;;18.95;54.83
54270;BME280;40181;51.560;13.000;2023-09-30T11:24:24;101666.59;;;19.06;55.15
54270;BME280;40181;51.560;13.000;2023-09-30T11:26:56;101673.66;;;19.12;53.03
54270;BME280;40181;51.560;13.000;2023-09-30T11:29:26;101666.56;;;19.12;53.36
54270;BME280;40181;51.560;13.000;2023-09-30T11:31:55;101656.88;;;18.92;52.67
54270;BME280;40181;51.560;13.000;2023-09-30T11:34:32;101663.06;;;18.93;53.79
54270;BME280;40181;51.560;13.000;2023-09-30T11:37:04;101644.44;;;18.91;54.75
54270;BME280;40181;51.560;13.000;2023-09-30T11:39:35;101647.97;;;18.92;54.77
54270;BME280;40181;51.560;13.000;2023-09-30T11:42:15;101646.06;;;19.30;53.22
54270;BME280;40181;51.560;13.000;2023-09-30T11:44:46;101641.47;;;19.57;53.83
54270;BME280;40181;51.560;13.000;2023-09-30T11:47:28;101630.81;;;19.52;52.70
54270;BME280;40181;51.560;13.000;2023-09-30T11:49:59;101628.09;;;19.61;52.15
54270;BME280;40181;51.560;13.000;2023-09-30T11:52:29;101644.44;;;19.01;52.23
54270;BME280;40181;51.560;13.000;2023-09-30T11:55:05;101643.34;;;19.38;52.31
54270;BME280;40181;51.560;13.000;2023-09-30T11:57:40;101627.75;;;20.07;52.56
54270;BME280;40181;51.560;13.000;2023-09-30T12:00:10;101640.19;;;20.08;50.89
54270;BME280;40181;51.560;13.000;2023-09-30T12:02:43;101633.09;;;20.07;51.58
54270;BME280;40181;51.560;13.000;2023-09-30T12:05:12;101633.81;;;20.24;51.28
54270;BME280;40181;51.560;13.000;2023-09-30T12:07:42;101635.47;;;20.36;50.96
54270;BME280;40181;51.560;13.000;2023-09-30T12:10:12;101634.66;;;20.28;49.76
54270;BME280;40181;51.560;13.000;2023-09-30T12:12:44;101627.66;;;20.17;49.12
54270;BME280;40181;51.560;13.000;2023-09-30T12:15:13;101624.13;;;20.14;49.65
54270;BME280;40181;51.560;13.000;2023-09-30T12:17:42;101617.84;;;20.20;49.75
54270;BME280;40181;51.560;13.000;2023-09-30T12:20:12;101618.06;;;19.96;49.13
54270;BME280;40181;51.560;13.000;2023-09-30T12:22:43;101619.84;;;19.99;49.88
54270;BME280;40181;51.560;13.000;2023-09-30T12:25:13;101602.94;;;20.00;48.40
54270;BME280;40181;51.560;13.000;2023-09-30T12:27:49;101603.56;;;20.27;50.64
54270;BME280;40181;51.560;13.000;2023-09-30T12:30:20;101589.34;;;20.25;48.15
54270;BME280;40181;51.560;13.000;2023-09-30T12:32:49;101604.72;;;19.98;48.14
54270;BME280;40181;51.560;13.000;2023-09-30T12:35:20;101596.63;;;20.09;48.08
54270;BME280;40181;51.560;13.000;2023-09-30T12:37:50;101593.63;;;20.40;47.47
54270;BME280;40181;51.560;13.000;2023-09-30T12:40:19;101595.78;;;20.03;48.36
54270;BME280;40181;51.560;13.000;2023-09-30T12:42:51;101605.63;;;19.95;46.82
54270;BME280;40181;51.560;13.000;2023-09-30T12:45:20;101614.38;;;20.11;46.90
54270;BME280;40181;51.560;13.000;2023-09-30T12:47:49;101608.13;;;20.12;46.23
54270;BME280;40181;51.560;13.000;2023-09-30T12:50:21;101599.06;;;20.32;48.18
54270;BME280;40181;51.560;13.000;2023-09-30T12:52:51;101599.25;;;20.12;46.05
54270;BME280;40181;51.560;13.000;2023-09-30T12:55:20;101593.63;;;20.40;46.49
54270;BME280;40181;51.560;13.000;2023-09-30T12:57:52;101572.84;;;20.67;46.82
54270;BME280;40181;51.560;13.000;2023-09-30T13:00:22;101579.63;;;20.96;48.05
54270;BME280;40181;51.560;13.000;2023-09-30T13:02:51;101582.78;;;20.54;46.36
54270;BME280;40181;51.560;13.000;2023-09-30T13:05:21;101579.09;;;20.66;45.71